sensor_id;sensor_type;location;lat;lon;timestamp;P1;durP1;ratioP1;P2;durP2;ratioP2
15271;SDS011;7737;51.578;7.268;2023-03-01T00:00:39;7.30;;;6.20;;
15271;SDS011;7737;51.578;7.268;2023-03-01T00:03:06;7.50;;;6.00;;
15271;SDS011;7737;51.578;7.268;2023-03-01T00:05:32;7.73;;;6.07;;
15271;SDS011;7737;51.578;7.268;2023-03-01T00:07:59;6.53;;;5.83;;
15271;SDS011;7737;51.578;7.268;2023-03-01T00:10:25;6.70;;;6.00;;
15271;SDS011;7737;51.578;7.268;2023-03-01T00:12:53;7.37;;;6.53;;
15271;SDS011;7737;51.578;7.268;2023-03-01T00:15:21;7.27;;;6.47;;
15271;SDS011;7737;51.578;7.268;2023-03-01T00:17:47;7.23;;;6.30;;
15271;SDS011;7737;51.578;7.268;2023-03-01T00:20:14;7.87;;;6.27;;
15271;SDS011;7737;51.578;7.268;2023-03-01T00:22:40;7.07;;;6.27;;
15271;SDS011;7737;51.578;7.268;2023-03-01T00:25:07;7.57;;;6.30;;
15271;SDS011;7737;51.578;7.268;2023-03-01T00:27:34;7.20;;;6.10;;
15271;SDS011;7737;51.578;7.268;2023-03-01T00:30:02;8.70;;;6.30;;
15271;SDS011;7737;51.578;7.268;2023-03-01T00:32:29;7.60;;;6.60;;
15271;SDS011;7737;51.578;7.268;2023-03-01T00:34:55;7.87;;;6.23;;
15271;SDS011;7737;51.578;7.268;2023-03-01T00:37:22;8.03;;;6.57;;
15271;SDS011;7737;51.578;7.268;2023-03-01T00:39:49;8.23;;;6.20;;
15271;SDS011;7737;51.578;7.268;2023-03-01T00:42:16;7.07;;;6.37;;
15271;SDS011;7737;51.578;7.268;2023-03-01T00:44:42;7.37;;;6.27;;
15271;SDS011;7737;51.578;7.268;2023-03-01T00:47:10;7.87;;;6.30;;
15271;SDS011;7737;51.578;7.268;2023-03-01T00:49:37;7.23;;;6.13;;
15271;SDS011;7737;51.578;7.268;2023-03-01T00:52:04;7.30;;;6.23;;
15271;SDS011;7737;51.578;7.268;2023-03-01T00:54:30;9.43;;;6.47;;
15271;SDS011;7737;51.578;7.268;2023-03-01T00:56:57;8.30;;;6.00;;
15271;SDS011;7737;51.578;7.268;2023-03-01T00:59:24;10.50;;;7.00;;
15271;SDS011;7737;51.578;7.268;2023-03-01T01:01:50;9.93;;;6.87;;
15271;SDS011;7737;51.578;7.268;2023-03-01T01:04:18;10.67;;;7.30;;
15271;SDS011;7737;51.578;7.268;2023-03-01T01:06:45;7.67;;;6.70;;
15271;SDS011;7737;51.578;7.268;2023-03-01T01:09:13;8.30;;;6.80;;
15271;SDS011;7737;51.578;7.268;2023-03-01T01:11:43;7.60;;;6.60;;
15271;SDS011;7737;51.578;7.268;2023-03-01T01:14:10;8.47;;;6.77;;
15271;SDS011;7737;51.578;7.268;2023-03-01T01:16:36;7.70;;;6.70;;
15271;SDS011;7737;51.578;7.268;2023-03-01T01:19:03;9.37;;;7.27;;
15271;SDS011;7737;51.578;7.268;2023-03-01T01:21:31;11.00;;;7.30;;
15271;SDS011;7737;51.578;7.268;2023-03-01T01:23:57;9.17;;;7.33;;
15271;SDS011;7737;51.578;7.268;2023-03-01T01:26:24;8.63;;;7.13;;
15271;SDS011;7737;51.578;7.268;2023-03-01T01:28:52;9.77;;;7.57;;
15271;SDS011;7737;51.578;7.268;2023-03-01T01:31:20;8.20;;;7.00;;
15271;SDS011;7737;51.578;7.268;2023-03-01T01:33:48;7.77;;;6.97;;
15271;SDS011;7737;51.578;7.268;2023-03-01T01:36:15;8.83;;;7.03;;
15271;SDS011;7737;51.578;7.268;2023-03-01T01:38:43;11.17;;;7.50;;
15271;SDS011;7737;51.578;7.268;2023-03-01T01:41:11;7.90;;;7.03;;
15271;SDS011;7737;51.578;7.268;2023-03-01T01:43:39;8.37;;;7.43;;
15271;SDS011;7737;51.578;7.268;2023-03-01T01:46:07;8.60;;;7.47;;
15271;SDS011;7737;51.578;7.268;2023-03-01T01:48:44;8.60;;;6.97;;
15271;SDS011;7737;51.578;7.268;2023-03-01T01:51:16;9.47;;;7.13;;
15271;SDS011;7737;51.578;7.268;2023-03-01T01:53:49;7.57;;;6.77;;
15271;SDS011;7737;51.578;7.268;2023-03-01T01:56:19;8.33;;;6.63;;
15271;SDS011;7737;51.578;7.268;2023-03-01T01:58:47;7.93;;;6.90;;
15271;SDS011;7737;51.578;7.268;2023-03-01T02:01:14;9.57;;;7.50;;
15271;SDS011;7737;51.578;7.268;2023-03-01T02:03:42;9.40;;;8.13;;
15271;SDS011;7737;51.578;7.268;2023-03-01T02:06:12;9.27;;;7.40;;
15271;SDS011;7737;51.578;7.268;2023-03-01T02:08:44;9.67;;;7.87;;
15271;SDS011;7737;51.578;7.268;2023-03-01T02:11:15;10.63;;;7.90;;
15271;SDS011;7737;51.578;7.268;2023-03-01T02:13:43;9.63;;;8.00;;
15271;SDS011;7737;51.578;7.268;2023-03-01T02:16:13;10.17;;;7.60;;
15271;SDS011;7737;51.578;7.268;2023-03-01T02:18:41;9.90;;;7.63;;
15271;SDS011;7737;51.578;7.268;2023-03-01T02:21:12;9.20;;;7.53;;
15271;SDS011;7737;51.578;7.268;2023-03-01T02:23:49;9.60;;;7.67;;
15271;SDS011;7737;51.578;7.268;2023-03-01T02:26:18;10.27;;;7.70;;
15271;SDS011;7737;51.578;7.268;2023-03-01T02:28:51;10.43;;;8.23;;
15271;SDS011;7737;51.578;7.268;2023-03-01T02:31:18;9.03;;;7.40;;
15271;SDS011;7737;51.578;7.268;2023-03-01T02:34:04;10.20;;;8.10;;
15271;SDS011;7737;51.578;7.268;2023-03-01T02:36:34;9.17;;;7.20;;
15271;SDS011;7737;51.578;7.268;2023-03-01T02:39:03;7.73;;;6.93;;
15271;SDS011;7737;51.578;7.268;2023-03-01T02:41:34;8.87;;;7.70;;
15271;SDS011;7737;51.578;7.268;2023-03-01T02:44:04;9.37;;;7.73;;
15271;SDS011;7737;51.578;7.268;2023-03-01T02:46:31;9.83;;;8.33;;
15271;SDS011;7737;51.578;7.268;2023-03-01T02:48:58;9.63;;;7.37;;
15271;SDS011;7737;51.578;7.268;2023-03-01T02:51:37;10.23;;;7.60;;
15271;SDS011;7737;51.578;7.268;2023-03-01T02:54:13;10.27;;;7.20;;
15271;SDS011;7737;51.578;7.268;2023-03-01T02:56:47;9.53;;;7.93;;
15271;SDS011;7737;51.578;7.268;2023-03-01T02:59:16;8.77;;;7.77;;
15271;SDS011;7737;51.578;7.268;2023-03-01T03:01:45;8.60;;;7.80;;
15271;SDS011;7737;51.578;7.268;2023-03-01T03:04:13;10.33;;;7.90;;
15271;SDS011;7737;51.578;7.268;2023-03-01T03:06:42;9.30;;;7.43;;
15271;SDS011;7737;51.578;7.268;2023-03-01T03:09:09;8.93;;;8.03;;
15271;SDS011;7737;51.578;7.268;2023-03-01T03:11:35;8.93;;;7.63;;
15271;SDS011;7737;51.578;7.268;2023-03-01T03:14:04;10.93;;;7.97;;
15271;SDS011;7737;51.578;7.268;2023-03-01T03:16:38;11.47;;;8.13;;
15271;SDS011;7737;51.578;7.268;2023-03-01T03:19:06;11.43;;;8.27;;
15271;SDS011;7737;51.578;7.268;2023-03-01T03:21:32;11.63;;;8.70;;
15271;SDS011;7737;51.578;7.268;2023-03-01T03:24:00;11.23;;;8.80;;
15271;SDS011;7737;51.578;7.268;2023-03-01T03:26:27;9.67;;;8.53;;
15271;SDS011;7737;51.578;7.268;2023-03-01T03:28:53;9.53;;;8.30;;
15271;SDS011;7737;51.578;7.268;2023-03-01T03:31:20;9.97;;;8.60;;
15271;SDS011;7737;51.578;7.268;2023-03-01T03:33:48;9.90;;;8.33;;
15271;SDS011;7737;51.578;7.268;2023-03-01T03:36:16;9.47;;;8.47;;
15271;SDS011;7737;51.578;7.268;2023-03-01T03:38:42;11.30;;;8.50;;
15271;SDS011;7737;51.578;7.268;2023-03-01T03:41:09;10.20;;;8.27;;
15271;SDS011;7737;51.578;7.268;2023-03-01T03:43:36;9.70;;;8.23;;
15271;SDS011;7737;51.578;7.268;2023-03-01T03:46:05;11.33;;;9.30;;
15271;SDS011;7737;51.578;7.268;2023-03-01T03:48:32;11.47;;;8.77;;
15271;SDS011;7737;51.578;7.268;2023-03-01T03:51:01;10.63;;;8.73;;
15271;SDS011;7737;51.578;7.268;2023-03-01T03:53:30;10.67;;;9.07;;
15271;SDS011;7737;51.578;7.268;2023-03-01T03:55:57;9.60;;;8.60;;
15271;SDS011;7737;51.578;7.268;2023-03-01T03:58:24;11.33;;;8.63;;
15271;SDS011;7737;51.578;7.268;2023-03-01T04:00:52;11.63;;;8.57;;
15271;SDS011;7737;51.578;7.268;2023-03-01T04:03:22;11.50;;;8.40;;
15271;SDS011;7737;51.578;7.268;2023-03-01T04:05:49;11.00;;;8.90;;
15271;SDS011;7737;51.578;7.268;2023-03-01T04:08:18;11.47;;;8.97;;
15271;SDS011;7737;51.578;7.268;2023-03-01T04:10:46;10.37;;;8.23;;
15271;SDS011;7737;51.578;7.268;2023-03-01T04:13:16;9.50;;;8.57;;
15271;SDS011;7737;51.578;7.268;2023-03-01T04:15:44;9.10;;;8.20;;
15271;SDS011;7737;51.578;7.268;2023-03-01T04:18:11;11.23;;;8.43;;
15271;SDS011;7737;51.578;7.268;2023-03-01T04:20:39;10.37;;;8.63;;
15271;SDS011;7737;51.578;7.268;2023-03-01T04:23:06;10.27;;;9.20;;
15271;SDS011;7737;51.578;7.268;2023-03-01T04:25:40;12.10;;;9.10;;
15271;SDS011;7737;51.578;7.268;2023-03-01T04:28:08;13.30;;;9.53;;
15271;SDS011;7737;51.578;7.268;2023-03-01T04:30:36;10.13;;;8.77;;
15271;SDS011;7737;51.578;7.268;2023-03-01T04:33:03;12.47;;;9.10;;
15271;SDS011;7737;51.578;7.268;2023-03-01T04:35:30;11.67;;;8.70;;
15271;SDS011;7737;51.578;7.268;2023-03-01T04:37:57;11.17;;;8.50;;
15271;SDS011;7737;51.578;7.268;2023-03-01T04:40:23;12.00;;;9.47;;
15271;SDS011;7737;51.578;7.268;2023-03-01T04:42:52;12.17;;;9.43;;
15271;SDS011;7737;51.578;7.268;2023-03-01T04:45:19;10.70;;;9.57;;
15271;SDS011;7737;51.578;7.268;2023-03-01T04:47:45;11.33;;;9.03;;
15271;SDS011;7737;51.578;7.268;2023-03-01T04:50:13;11.33;;;9.13;;
15271;SDS011;7737;51.578;7.268;2023-03-01T04:52:41;12.00;;;9.17;;
15271;SDS011;7737;51.578;7.268;2023-03-01T04:55:08;10.97;;;9.10;;
15271;SDS011;7737;51.578;7.268;2023-03-01T04:57:36;12.23;;;8.83;;
15271;SDS011;7737;51.578;7.268;2023-03-01T05:00:04;11.80;;;8.80;;
15271;SDS011;7737;51.578;7.268;2023-03-01T05:02:45;10.60;;;8.67;;
15271;SDS011;7737;51.578;7.268;2023-03-01T05:05:13;10.73;;;9.30;;
15271;SDS011;7737;51.578;7.268;2023-03-01T05:07:39;13.60;;;9.10;;
15271;SDS011;7737;51.578;7.268;2023-03-01T05:10:06;12.40;;;9.37;;
15271;SDS011;7737;51.578;7.268;2023-03-01T05:12:33;12.23;;;8.83;;
15271;SDS011;7737;51.578;7.268;2023-03-01T05:15:04;10.80;;;8.90;;
15271;SDS011;7737;51.578;7.268;2023-03-01T05:17:32;15.07;;;9.23;;
15271;SDS011;7737;51.578;7.268;2023-03-01T05:19:58;12.50;;;8.83;;
15271;SDS011;7737;51.578;7.268;2023-03-01T05:22:26;13.67;;;8.97;;
15271;SDS011;7737;51.578;7.268;2023-03-01T05:24:52;11.87;;;9.13;;
15271;SDS011;7737;51.578;7.268;2023-03-01T05:27:20;11.23;;;8.93;;
15271;SDS011;7737;51.578;7.268;2023-03-01T05:29:47;12.73;;;8.83;;
15271;SDS011;7737;51.578;7.268;2023-03-01T05:32:15;11.77;;;9.30;;
15271;SDS011;7737;51.578;7.268;2023-03-01T05:34:42;11.30;;;9.07;;
15271;SDS011;7737;51.578;7.268;2023-03-01T05:37:11;11.13;;;9.37;;
15271;SDS011;7737;51.578;7.268;2023-03-01T05:39:38;11.67;;;9.23;;
15271;SDS011;7737;51.578;7.268;2023-03-01T05:42:09;17.50;;;10.40;;
15271;SDS011;7737;51.578;7.268;2023-03-01T05:44:36;13.10;;;9.77;;
15271;SDS011;7737;51.578;7.268;2023-03-01T05:47:03;14.37;;;10.33;;
15271;SDS011;7737;51.578;7.268;2023-03-01T05:49:31;14.37;;;9.43;;
15271;SDS011;7737;51.578;7.268;2023-03-01T05:51:57;15.17;;;9.50;;
15271;SDS011;7737;51.578;7.268;2023-03-01T05:54:24;15.80;;;9.93;;
15271;SDS011;7737;51.578;7.268;2023-03-01T05:56:51;11.03;;;9.30;;
15271;SDS011;7737;51.578;7.268;2023-03-01T05:59:17;13.73;;;9.37;;
15271;SDS011;7737;51.578;7.268;2023-03-01T06:01:44;17.73;;;10.60;;
15271;SDS011;7737;51.578;7.268;2023-03-01T06:04:11;15.10;;;11.57;;
15271;SDS011;7737;51.578;7.268;2023-03-01T06:06:38;15.87;;;11.00;;
15271;SDS011;7737;51.578;7.268;2023-03-01T06:09:05;15.63;;;11.60;;
15271;SDS011;7737;51.578;7.268;2023-03-01T06:11:34;15.43;;;11.30;;
15271;SDS011;7737;51.578;7.268;2023-03-01T06:14:01;14.37;;;11.50;;
15271;SDS011;7737;51.578;7.268;2023-03-01T06:16:28;14.97;;;10.73;;
15271;SDS011;7737;51.578;7.268;2023-03-01T06:18:55;17.60;;;11.30;;
15271;SDS011;7737;51.578;7.268;2023-03-01T06:21:21;18.80;;;11.40;;
15271;SDS011;7737;51.578;7.268;2023-03-01T06:23:49;21.00;;;10.60;;
15271;SDS011;7737;51.578;7.268;2023-03-01T06:26:16;15.73;;;10.97;;
15271;SDS011;7737;51.578;7.268;2023-03-01T06:28:43;17.90;;;11.53;;
15271;SDS011;7737;51.578;7.268;2023-03-01T06:31:11;17.60;;;12.30;;
15271;SDS011;7737;51.578;7.268;2023-03-01T06:33:37;18.07;;;11.53;;
15271;SDS011;7737;51.578;7.268;2023-03-01T06:36:04;18.83;;;11.87;;
15271;SDS011;7737;51.578;7.268;2023-03-01T06:38:31;16.60;;;10.80;;
15271;SDS011;7737;51.578;7.268;2023-03-01T06:40:59;16.30;;;11.67;;
15271;SDS011;7737;51.578;7.268;2023-03-01T06:43:26;17.97;;;10.77;;
15271;SDS011;7737;51.578;7.268;2023-03-01T06:45:53;15.57;;;11.27;;
15271;SDS011;7737;51.578;7.268;2023-03-01T06:48:19;15.40;;;10.97;;
15271;SDS011;7737;51.578;7.268;2023-03-01T06:50:46;20.17;;;12.20;;
15271;SDS011;7737;51.578;7.268;2023-03-01T06:53:12;18.00;;;12.13;;
15271;SDS011;7737;51.578;7.268;2023-03-01T06:55:39;16.07;;;11.30;;
15271;SDS011;7737;51.578;7.268;2023-03-01T06:58:08;19.00;;;12.40;;
15271;SDS011;7737;51.578;7.268;2023-03-01T07:00:35;19.90;;;12.47;;
15271;SDS011;7737;51.578;7.268;2023-03-01T07:03:02;17.40;;;11.07;;
15271;SDS011;7737;51.578;7.268;2023-03-01T07:05:28;16.20;;;12.57;;
15271;SDS011;7737;51.578;7.268;2023-03-01T07:07:56;18.20;;;12.40;;
15271;SDS011;7737;51.578;7.268;2023-03-01T07:10:22;16.63;;;13.37;;
15271;SDS011;7737;51.578;7.268;2023-03-01T07:12:49;16.73;;;13.00;;
15271;SDS011;7737;51.578;7.268;2023-03-01T07:15:17;18.00;;;12.80;;
15271;SDS011;7737;51.578;7.268;2023-03-01T07:17:44;23.27;;;14.03;;
15271;SDS011;7737;51.578;7.268;2023-03-01T07:20:12;21.97;;;14.30;;
15271;SDS011;7737;51.578;7.268;2023-03-01T07:22:40;21.53;;;13.80;;
15271;SDS011;7737;51.578;7.268;2023-03-01T07:25:07;23.87;;;14.27;;
15271;SDS011;7737;51.578;7.268;2023-03-01T07:27:35;19.03;;;13.90;;
15271;SDS011;7737;51.578;7.268;2023-03-01T07:30:02;20.77;;;14.37;;
15271;SDS011;7737;51.578;7.268;2023-03-01T07:32:31;22.00;;;14.37;;
15271;SDS011;7737;51.578;7.268;2023-03-01T07:34:57;18.87;;;12.73;;
15271;SDS011;7737;51.578;7.268;2023-03-01T07:37:24;21.43;;;14.27;;
15271;SDS011;7737;51.578;7.268;2023-03-01T07:39:50;19.20;;;13.83;;
15271;SDS011;7737;51.578;7.268;2023-03-01T07:42:17;19.57;;;14.00;;
15271;SDS011;7737;51.578;7.268;2023-03-01T07:44:43;19.60;;;13.10;;
15271;SDS011;7737;51.578;7.268;2023-03-01T07:47:10;18.67;;;13.10;;
15271;SDS011;7737;51.578;7.268;2023-03-01T07:49:37;25.90;;;15.47;;
15271;SDS011;7737;51.578;7.268;2023-03-01T07:52:04;16.50;;;12.20;;
15271;SDS011;7737;51.578;7.268;2023-03-01T07:54:31;15.77;;;11.60;;
15271;SDS011;7737;51.578;7.268;2023-03-01T07:56:57;15.17;;;11.80;;
15271;SDS011;7737;51.578;7.268;2023-03-01T07:59:24;14.27;;;11.37;;
15271;SDS011;7737;51.578;7.268;2023-03-01T08:01:54;17.07;;;12.13;;
15271;SDS011;7737;51.578;7.268;2023-03-01T08:04:20;17.80;;;11.73;;
15271;SDS011;7737;51.578;7.268;2023-03-01T08:06:48;18.93;;;11.73;;
15271;SDS011;7737;51.578;7.268;2023-03-01T08:09:15;16.43;;;11.87;;
15271;SDS011;7737;51.578;7.268;2023-03-01T08:11:41;14.73;;;11.37;;
15271;SDS011;7737;51.578;7.268;2023-03-01T08:14:08;19.53;;;11.60;;
15271;SDS011;7737;51.578;7.268;2023-03-01T08:16:35;15.03;;;11.00;;
15271;SDS011;7737;51.578;7.268;2023-03-01T08:19:03;13.73;;;10.37;;
15271;SDS011;7737;51.578;7.268;2023-03-01T08:21:30;16.33;;;10.90;;
15271;SDS011;7737;51.578;7.268;2023-03-01T08:23:58;13.70;;;10.63;;
15271;SDS011;7737;51.578;7.268;2023-03-01T08:26:25;16.70;;;10.20;;
15271;SDS011;7737;51.578;7.268;2023-03-01T08:28:51;13.73;;;9.67;;
15271;SDS011;7737;51.578;7.268;2023-03-01T08:31:19;20.70;;;11.03;;
15271;SDS011;7737;51.578;7.268;2023-03-01T08:33:47;14.53;;;10.53;;
15271;SDS011;7737;51.578;7.268;2023-03-01T08:36:20;16.43;;;10.70;;
15271;SDS011;7737;51.578;7.268;2023-03-01T08:38:47;17.07;;;10.53;;
15271;SDS011;7737;51.578;7.268;2023-03-01T08:41:15;13.17;;;9.20;;
15271;SDS011;7737;51.578;7.268;2023-03-01T08:43:41;13.93;;;9.70;;
15271;SDS011;7737;51.578;7.268;2023-03-01T08:46:08;11.67;;;9.10;;
15271;SDS011;7737;51.578;7.268;2023-03-01T08:48:35;11.67;;;8.80;;
15271;SDS011;7737;51.578;7.268;2023-03-01T08:51:08;11.03;;;8.73;;
15271;SDS011;7737;51.578;7.268;2023-03-01T08:53:35;14.10;;;9.77;;
15271;SDS011;7737;51.578;7.268;2023-03-01T08:56:02;14.17;;;9.23;;
15271;SDS011;7737;51.578;7.268;2023-03-01T08:58:30;13.63;;;9.00;;
15271;SDS011;7737;51.578;7.268;2023-03-01T09:00:57;17.53;;;9.90;;
15271;SDS011;7737;51.578;7.268;2023-03-01T09:03:24;13.73;;;10.10;;
15271;SDS011;7737;51.578;7.268;2023-03-01T09:05:51;20.73;;;10.50;;
15271;SDS011;7737;51.578;7.268;2023-03-01T09:08:18;15.50;;;10.57;;
15271;SDS011;7737;51.578;7.268;2023-03-01T09:10:46;15.63;;;11.07;;
15271;SDS011;7737;51.578;7.268;2023-03-01T09:13:12;13.63;;;10.43;;
15271;SDS011;7737;51.578;7.268;2023-03-01T09:15:41;14.97;;;10.00;;
15271;SDS011;7737;51.578;7.268;2023-03-01T09:18:07;10.80;;;9.10;;
15271;SDS011;7737;51.578;7.268;2023-03-01T09:20:34;11.50;;;10.20;;
15271;SDS011;7737;51.578;7.268;2023-03-01T09:23:00;11.73;;;9.20;;
15271;SDS011;7737;51.578;7.268;2023-03-01T09:25:27;18.30;;;10.50;;
15271;SDS011;7737;51.578;7.268;2023-03-01T09:27:54;11.77;;;10.27;;
15271;SDS011;7737;51.578;7.268;2023-03-01T09:30:21;12.23;;;8.63;;
15271;SDS011;7737;51.578;7.268;2023-03-01T09:32:48;17.50;;;8.17;;
15271;SDS011;7737;51.578;7.268;2023-03-01T09:35:15;11.23;;;8.80;;
15271;SDS011;7737;51.578;7.268;2023-03-01T09:37:42;10.43;;;8.17;;
15271;SDS011;7737;51.578;7.268;2023-03-01T09:40:11;9.70;;;7.90;;
15271;SDS011;7737;51.578;7.268;2023-03-01T09:42:45;10.97;;;8.10;;
15271;SDS011;7737;51.578;7.268;2023-03-01T09:45:17;12.40;;;9.17;;
15271;SDS011;7737;51.578;7.268;2023-03-01T09:47:51;10.53;;;8.50;;
15271;SDS011;7737;51.578;7.268;2023-03-01T09:50:19;11.13;;;8.03;;
15271;SDS011;7737;51.578;7.268;2023-03-01T09:52:47;11.33;;;7.00;;
15271;SDS011;7737;51.578;7.268;2023-03-01T09:55:29;12.97;;;7.30;;
15271;SDS011;7737;51.578;7.268;2023-03-01T09:58:00;8.87;;;7.00;;
15271;SDS011;7737;51.578;7.268;2023-03-01T10:00:41;9.37;;;6.70;;
15271;SDS011;7737;51.578;7.268;2023-03-01T10:03:13;10.63;;;6.03;;
15271;SDS011;7737;51.578;7.268;2023-03-01T10:05:47;10.60;;;6.00;;
15271;SDS011;7737;51.578;7.268;2023-03-01T10:08:26;10.07;;;6.30;;
15271;SDS011;7737;51.578;7.268;2023-03-01T10:10:56;8.90;;;6.20;;
15271;SDS011;7737;51.578;7.268;2023-03-01T10:13:24;7.97;;;6.30;;
15271;SDS011;7737;51.578;7.268;2023-03-01T10:15:54;8.67;;;6.30;;
15271;SDS011;7737;51.578;7.268;2023-03-01T10:18:24;10.07;;;6.63;;
15271;SDS011;7737;51.578;7.268;2023-03-01T10:20:54;11.90;;;7.30;;
15271;SDS011;7737;51.578;7.268;2023-03-01T10:23:23;8.90;;;6.83;;
15271;SDS011;7737;51.578;7.268;2023-03-01T10:29:02;8.57;;;6.27;;
15271;SDS011;7737;51.578;7.268;2023-03-01T10:31:37;8.37;;;6.17;;
15271;SDS011;7737;51.578;7.268;2023-03-01T10:34:10;7.40;;;6.23;;
15271;SDS011;7737;51.578;7.268;2023-03-01T10:36:39;9.00;;;6.27;;
15271;SDS011;7737;51.578;7.268;2023-03-01T10:39:11;8.03;;;6.20;;
15271;SDS011;7737;51.578;7.268;2023-03-01T10:41:45;9.07;;;6.10;;
15271;SDS011;7737;51.578;7.268;2023-03-01T10:44:34;7.47;;;5.80;;
15271;SDS011;7737;51.578;7.268;2023-03-01T10:47:03;7.93;;;6.07;;
15271;SDS011;7737;51.578;7.268;2023-03-01T10:49:31;7.87;;;6.37;;
15271;SDS011;7737;51.578;7.268;2023-03-01T10:51:58;7.37;;;6.07;;
15271;SDS011;7737;51.578;7.268;2023-03-01T10:54:43;7.20;;;5.73;;
15271;SDS011;7737;51.578;7.268;2023-03-01T10:57:27;7.37;;;5.10;;
15271;SDS011;7737;51.578;7.268;2023-03-01T11:00:14;6.73;;;5.10;;
15271;SDS011;7737;51.578;7.268;2023-03-01T11:02:50;9.00;;;5.60;;
15271;SDS011;7737;51.578;7.268;2023-03-01T11:05:30;8.40;;;5.67;;
15271;SDS011;7737;51.578;7.268;2023-03-01T11:07:59;6.57;;;5.20;;
15271;SDS011;7737;51.578;7.268;2023-03-01T11:10:27;8.53;;;5.73;;
15271;SDS011;7737;51.578;7.268;2023-03-01T11:13:05;7.90;;;6.07;;
15271;SDS011;7737;51.578;7.268;2023-03-01T11:15:33;8.27;;;5.47;;
15271;SDS011;7737;51.578;7.268;2023-03-01T11:17:59;8.85;;;5.72;;
15271;SDS011;7737;51.578;7.268;2023-03-01T11:20:29;10.67;;;5.70;;
15271;SDS011;7737;51.578;7.268;2023-03-01T11:23:01;9.03;;;6.10;;
15271;SDS011;7737;51.578;7.268;2023-03-01T11:25:34;7.30;;;5.43;;
15271;SDS011;7737;51.578;7.268;2023-03-01T11:28:04;6.50;;;5.23;;
15271;SDS011;7737;51.578;7.268;2023-03-01T11:30:32;8.00;;;5.83;;
15271;SDS011;7737;51.578;7.268;2023-03-01T11:33:10;7.82;;;5.65;;
15271;SDS011;7737;51.578;7.268;2023-03-01T11:35:44;8.98;;;6.28;;
15271;SDS011;7737;51.578;7.268;2023-03-01T11:38:16;9.37;;;5.13;;
15271;SDS011;7737;51.578;7.268;2023-03-01T11:40:48;9.23;;;6.00;;
15271;SDS011;7737;51.578;7.268;2023-03-01T11:43:20;7.47;;;5.70;;
15271;SDS011;7737;51.578;7.268;2023-03-01T11:49:01;10.77;;;5.57;;
15271;SDS011;7737;51.578;7.268;2023-03-01T11:51:44;7.55;;;6.10;;
15271;SDS011;7737;51.578;7.268;2023-03-01T11:54:21;7.13;;;5.77;;
15271;SDS011;7737;51.578;7.268;2023-03-01T11:56:55;8.05;;;5.72;;
15271;SDS011;7737;51.578;7.268;2023-03-01T11:59:33;7.80;;;5.80;;
15271;SDS011;7737;51.578;7.268;2023-03-01T12:02:25;7.13;;;5.80;;
15271;SDS011;7737;51.578;7.268;2023-03-01T12:05:18;7.17;;;6.23;;
15271;SDS011;7737;51.578;7.268;2023-03-01T12:07:53;8.55;;;6.72;;
15271;SDS011;7737;51.578;7.268;2023-03-01T12:10:30;11.43;;;7.07;;
15271;SDS011;7737;51.578;7.268;2023-03-01T12:13:13;8.30;;;6.43;;
15271;SDS011;7737;51.578;7.268;2023-03-01T12:15:58;8.83;;;6.20;;
15271;SDS011;7737;51.578;7.268;2023-03-01T12:21:43;9.95;;;6.30;;
15271;SDS011;7737;51.578;7.268;2023-03-01T12:24:26;7.07;;;6.10;;
15271;SDS011;7737;51.578;7.268;2023-03-01T12:27:10;9.33;;;6.13;;
15271;SDS011;7737;51.578;7.268;2023-03-01T12:29:46;9.88;;;6.28;;
15271;SDS011;7737;51.578;7.268;2023-03-01T12:32:25;6.72;;;5.70;;
15271;SDS011;7737;51.578;7.268;2023-03-01T12:35:11;7.13;;;5.95;;
15271;SDS011;7737;51.578;7.268;2023-03-01T12:37:54;7.75;;;6.03;;
15271;SDS011;7737;51.578;7.268;2023-03-01T12:43:27;7.15;;;6.15;;
15271;SDS011;7737;51.578;7.268;2023-03-01T12:48:59;9.30;;;6.38;;
15271;SDS011;7737;51.578;7.268;2023-03-01T12:51:34;7.65;;;6.35;;
15271;SDS011;7737;51.578;7.268;2023-03-01T12:54:05;8.23;;;6.13;;
15271;SDS011;7737;51.578;7.268;2023-03-01T12:56:39;9.48;;;6.18;;
15271;SDS011;7737;51.578;7.268;2023-03-01T12:59:09;7.57;;;6.25;;
15271;SDS011;7737;51.578;7.268;2023-03-01T13:01:43;6.40;;;5.38;;
15271;SDS011;7737;51.578;7.268;2023-03-01T13:04:27;7.20;;;6.03;;
15271;SDS011;7737;51.578;7.268;2023-03-01T13:07:04;7.53;;;6.05;;
15271;SDS011;7737;51.578;7.268;2023-03-01T13:09:41;8.23;;;5.78;;
15271;SDS011;7737;51.578;7.268;2023-03-01T13:15:28;7.32;;;5.95;;
15271;SDS011;7737;51.578;7.268;2023-03-01T13:17:58;9.63;;;5.70;;
15271;SDS011;7737;51.578;7.268;2023-03-01T13:20:26;11.13;;;6.30;;
15271;SDS011;7737;51.578;7.268;2023-03-01T13:23:00;6.60;;;5.95;;
15271;SDS011;7737;51.578;7.268;2023-03-01T13:25:29;8.52;;;6.75;;
15271;SDS011;7737;51.578;7.268;2023-03-01T13:30:57;7.60;;;6.18;;
15271;SDS011;7737;51.578;7.268;2023-03-01T13:39:29;9.48;;;6.60;;
15271;SDS011;7737;51.578;7.268;2023-03-01T13:42:00;8.40;;;6.53;;
15271;SDS011;7737;51.578;7.268;2023-03-01T13:44:29;8.70;;;6.03;;
15271;SDS011;7737;51.578;7.268;2023-03-01T13:47:02;8.88;;;6.40;;
15271;SDS011;7737;51.578;7.268;2023-03-01T13:49:43;8.93;;;6.15;;
15271;SDS011;7737;51.578;7.268;2023-03-01T13:52:30;10.75;;;6.60;;
15271;SDS011;7737;51.578;7.268;2023-03-01T13:55:05;10.38;;;6.53;;
15271;SDS011;7737;51.578;7.268;2023-03-01T13:57:43;8.07;;;6.95;;
15271;SDS011;7737;51.578;7.268;2023-03-01T14:00:24;8.43;;;6.70;;
15271;SDS011;7737;51.578;7.268;2023-03-01T14:03:00;9.10;;;6.65;;
15271;SDS011;7737;51.578;7.268;2023-03-01T14:05:29;8.07;;;6.70;;
15271;SDS011;7737;51.578;7.268;2023-03-01T14:07:56;7.80;;;6.63;;
15271;SDS011;7737;51.578;7.268;2023-03-01T14:10:23;8.05;;;6.88;;
15271;SDS011;7737;51.578;7.268;2023-03-01T14:12:59;10.70;;;6.43;;
15271;SDS011;7737;51.578;7.268;2023-03-01T14:15:31;8.30;;;5.97;;
15271;SDS011;7737;51.578;7.268;2023-03-01T14:18:04;8.88;;;6.75;;
15271;SDS011;7737;51.578;7.268;2023-03-01T14:20:38;7.35;;;6.35;;
15271;SDS011;7737;51.578;7.268;2023-03-01T14:23:09;7.47;;;6.22;;
15271;SDS011;7737;51.578;7.268;2023-03-01T14:25:38;8.70;;;6.50;;
15271;SDS011;7737;51.578;7.268;2023-03-01T14:28:12;8.88;;;6.63;;
15271;SDS011;7737;51.578;7.268;2023-03-01T14:30:43;7.45;;;6.30;;
15271;SDS011;7737;51.578;7.268;2023-03-01T14:33:22;8.25;;;6.47;;
15271;SDS011;7737;51.578;7.268;2023-03-01T14:35:52;7.45;;;6.55;;
15271;SDS011;7737;51.578;7.268;2023-03-01T14:38:21;8.98;;;6.20;;
15271;SDS011;7737;51.578;7.268;2023-03-01T14:40:48;7.03;;;6.32;;
15271;SDS011;7737;51.578;7.268;2023-03-01T14:43:21;7.32;;;5.90;;
15271;SDS011;7737;51.578;7.268;2023-03-01T14:45:50;7.45;;;6.35;;
15271;SDS011;7737;51.578;7.268;2023-03-01T14:48:17;10.55;;;6.40;;
15271;SDS011;7737;51.578;7.268;2023-03-01T14:50:46;7.03;;;6.32;;
15271;SDS011;7737;51.578;7.268;2023-03-01T14:53:15;9.13;;;6.57;;
15271;SDS011;7737;51.578;7.268;2023-03-01T14:55:46;9.57;;;6.60;;
15271;SDS011;7737;51.578;7.268;2023-03-01T14:58:15;8.00;;;6.78;;
15271;SDS011;7737;51.578;7.268;2023-03-01T15:00:47;7.05;;;5.95;;
15271;SDS011;7737;51.578;7.268;2023-03-01T15:03:18;7.93;;;6.05;;
15271;SDS011;7737;51.578;7.268;2023-03-01T15:05:52;7.47;;;5.70;;
15271;SDS011;7737;51.578;7.268;2023-03-01T15:08:20;9.07;;;5.97;;
15271;SDS011;7737;51.578;7.268;2023-03-01T15:10:57;8.77;;;5.70;;
15271;SDS011;7737;51.578;7.268;2023-03-01T15:13:25;7.15;;;6.03;;
15271;SDS011;7737;51.578;7.268;2023-03-01T15:16:00;7.47;;;5.75;;
15271;SDS011;7737;51.578;7.268;2023-03-01T15:18:31;7.28;;;5.90;;
15271;SDS011;7737;51.578;7.268;2023-03-01T15:21:06;7.70;;;5.35;;
15271;SDS011;7737;51.578;7.268;2023-03-01T15:23:35;7.38;;;5.35;;
15271;SDS011;7737;51.578;7.268;2023-03-01T15:26:04;8.38;;;5.55;;
15271;SDS011;7737;51.578;7.268;2023-03-01T15:28:32;7.57;;;5.43;;
15271;SDS011;7737;51.578;7.268;2023-03-01T15:31:01;9.85;;;5.80;;
15271;SDS011;7737;51.578;7.268;2023-03-01T15:33:32;8.55;;;5.95;;
15271;SDS011;7737;51.578;7.268;2023-03-01T15:36:01;8.55;;;6.47;;